Kaisa — 9HRF9 — position and weather

sailwx.info

Track history (hours):
 
Tides and Currents Weather Stations Pressure Air Temp Water Temp Dewpoint Dewpoint Depression Visibility Wind Speed Wind Dir Waves Ship Positions

Kaisa

Last reported at 2018-Aug-17 06:20 UTC. Time now 2018-Aug-21 03:55 UTC.
Position N 56°13' E 012°17'.

Length 90 m; draft 4.9 m.

Type: Cargo ship. MMSI: 249399000.

Date/timePositionNaut miles runAvg speedWind from/ knotsBaromVisibWave heightAir tempDewpointWater temp
2018-Aug-17 06:20N 56°13' E 012°17'3 8.5
2018-Aug-17 06:00N 56°11' E 012°22'510.6
2018-Aug-17 05:30N 56°08' E 012°30'611.1
2018-Aug-17 05:00N 56°05' E 012°37'510.4
2018-Aug-17 04:30N 55°60' E 012°41'510.7
2018-Aug-17 04:00N 55°55' E 012°44'510.5
2018-Aug-17 03:30N 55°50' E 012°43'510.6
2018-Aug-17 03:01N 55°44' E 012°42'510.6
2018-Aug-17 02:30N 55°39' E 012°42'510.3
2018-Aug-17 02:00N 55°34' E 012°42'510.1
2018-Aug-17 01:29N 55°29' E 012°43'510.5
2018-Aug-17 01:00N 55°24' E 012°42'510.1
2018-Aug-17 00:30N 55°19' E 012°42'5 9.6
2018-Aug-17 00:00N 55°17' E 012°49'510.0
2018-Aug-16 23:30N 55°16' E 012°58'510.0
2018-Aug-16 23:01N 55°16' E 013°07'5 9.9
2018-Aug-16 22:30N 55°15' E 013°15'510.2
2018-Aug-16 22:00N 55°15' E 013°24'510.2
2018-Aug-16 21:30N 55°15' E 013°33'510.1
2018-Aug-16 21:00N 55°14' E 013°42'510.2
2018-Aug-16 20:30N 55°14' E 013°51'510.5
2018-Aug-16 20:00N 55°14' E 014°00'510.5
2018-Aug-16 19:30N 55°14' E 014°09'5 9.4
2018-Aug-16 19:00N 55°15' E 014°17'510.3
2018-Aug-16 18:30N 55°19' E 014°23'510.1
2018-Aug-16 18:00N 55°23' E 014°29'510.3
2018-Aug-16 17:30N 55°27' E 014°34'510.4
2018-Aug-16 17:00N 55°29' E 014°42'510.4
2018-Aug-16 16:30N 55°32' E 014°50'510.3
2018-Aug-16 16:00N 55°35' E 014°58'510.4
2018-Aug-16 15:30N 55°37' E 015°06'510.3
2018-Aug-16 15:00N 55°40' E 015°14'510.2
2018-Aug-16 14:30N 55°42' E 015°22'510.5
2018-Aug-16 14:00N 55°45' E 015°30'510.6
2018-Aug-16 13:30N 55°48' E 015°38'510.4
2018-Aug-16 13:00N 55°50' E 015°46'510.5
2018-Aug-16 12:30N 55°53' E 015°54'510.5
2018-Aug-16 12:00N 55°55' E 016°02'510.7
2018-Aug-16 11:30N 55°58' E 016°10'510.4
2018-Aug-16 11:00N 56°01' E 016°18'510.4
2018-Aug-16 10:30N 56°03' E 016°26'510.6
2018-Aug-16 10:00N 56°06' E 016°35'510.6
2018-Aug-16 09:30N 56°09' E 016°43'1510.3
2018-Aug-16 08:01N 56°18' E 017°05'010.1
2018-Aug-16 08:00N 56°18' E 017°05'27310.4
2018-Aug-15 05:51N 59°35' E 023°01'410.7
2018-Aug-15 05:30N 59°36' E 023°08'510.7
2018-Aug-15 05:00N 59°38' E 023°18'510.6
2018-Aug-15 04:30N 59°39' E 023°29'510.6
2018-Aug-15 04:00N 59°41' E 023°38'2610.7
2018-Aug-15 01:36N 59°48' E 024°27'110.1
2018-Aug-15 01:30N 59°48' E 024°29'510.1
2018-Aug-15 01:00N 59°49' E 024°39'510.3
2018-Aug-15 00:30N 59°51' E 024°49'510.3
2018-Aug-15 00:00N 59°52' E 024°59'4210.7
2018-Aug-14 20:06N 59°60' E 026°21'311.0
2018-Aug-14 19:49N 60°01' E 026°27'410.9
2018-Aug-14 19:29N 60°02' E 026°33'2410.2
2018-Aug-14 17:06N 60°05' E 027°22'110.9
2018-Aug-14 16:59N 60°06' E 027°24'1110.7
2018-Aug-14 16:00N 60°11' E 027°42'5 9.6
2018-Aug-14 15:30N 60°11' E 027°52'510.3
2018-Aug-14 15:00N 60°10' E 028°02'510.3
2018-Aug-14 14:29N 60°09' E 028°12'5 9.9
2018-Aug-14 14:00N 60°06' E 028°20'510.1
2018-Aug-14 13:30N 60°04' E 028°29'5 9.9
2018-Aug-14 13:00N 60°03' E 028°39'3410.1
2018-Aug-14 09:41N 59°59' E 029°45'210.4
2018-Aug-14 09:31N 59°58' E 029°48'510.5
2018-Aug-14 09:00N 59°56' E 029°58'5 9.8
2018-Aug-14 08:31N 59°54' E 030°07'3 6.1
2018-Aug-14 08:01N 59°53' E 030°13'0 0.3
2018-Aug-14 07:30N 59°54' E 030°13'0 0.0
2018-Aug-14 07:00N 59°54' E 030°13'0 0.0
2018-Aug-14 06:30N 59°54' E 030°13'0 0.0
2018-Aug-14 06:00N 59°54' E 030°13'0 0.0
2018-Aug-14 05:30N 59°54' E 030°13'0 0.0
2018-Aug-14 05:00N 59°54' E 030°13'0 0.0
2018-Aug-14 04:30N 59°54' E 030°13'0 0.0
2018-Aug-14 04:00N 59°54' E 030°13'0 0.0
2018-Aug-14 03:30N 59°54' E 030°13'0 0.0
2018-Aug-14 03:00N 59°54' E 030°13'0 0.0
2018-Aug-14 02:30N 59°54' E 030°13'0 0.0
2018-Aug-14 02:00N 59°54' E 030°13'0 0.0
2018-Aug-14 01:30N 59°54' E 030°13'0 0.0
2018-Aug-14 01:00N 59°54' E 030°13'0 0.0
2018-Aug-14 00:30N 59°54' E 030°13'0 0.0
2018-Aug-14 00:00N 59°54' E 030°13'0 0.0
2018-Aug-13 23:30N 59°54' E 030°13'0 0.0
2018-Aug-13 23:00N 59°54' E 030°13'0 0.0
2018-Aug-13 22:30N 59°54' E 030°13'0 0.0
2018-Aug-13 22:00N 59°54' E 030°13'0 0.0
2018-Aug-13 21:30N 59°54' E 030°13'0 0.0
2018-Aug-13 21:00N 59°54' E 030°13'0 0.0
2018-Aug-13 20:30N 59°54' E 030°13'0 0.0
2018-Aug-13 20:00N 59°54' E 030°13'0 0.0
2018-Aug-13 19:30N 59°54' E 030°13'0 0.0
2018-Aug-13 19:00N 59°54' E 030°13'0 0.0
2018-Aug-13 18:30N 59°54' E 030°13'0 0.0
2018-Aug-13 18:00N 59°54' E 030°13'0 0.0
2018-Aug-13 17:30N 59°54' E 030°13'0 0.0
2018-Aug-13 17:00N 59°54' E 030°13'0 0.0
2018-Aug-13 16:30N 59°54' E 030°13'0 0.0
2018-Aug-13 16:00N 59°54' E 030°13'0 0.0
2018-Aug-13 15:30N 59°54' E 030°13'0 0.0
2018-Aug-13 15:00N 59°54' E 030°13'0 0.0
2018-Aug-13 14:30N 59°54' E 030°13'0 0.0
2018-Aug-13 14:00N 59°54' E 030°13'0 0.0
2018-Aug-13 13:30N 59°54' E 030°13'0 0.0
2018-Aug-13 13:00N 59°54' E 030°13'0 0.0
2018-Aug-13 12:30N 59°54' E 030°13'0 0.0
2018-Aug-13 12:00N 59°54' E 030°13'0 0.0
2018-Aug-13 11:30N 59°54' E 030°13'0 0.0
2018-Aug-13 11:00N 59°54' E 030°13'0 0.0
2018-Aug-13 10:30N 59°54' E 030°13'0 0.0
2018-Aug-13 10:00N 59°54' E 030°13'0 0.0
2018-Aug-13 09:30N 59°54' E 030°13'0 0.0
2018-Aug-13 08:54N 59°54' E 030°13'0 0.0
2018-Aug-13 08:30N 59°54' E 030°13'0 0.0
2018-Aug-13 08:00N 59°54' E 030°13'0 0.0
2018-Aug-13 07:30N 59°54' E 030°13'0 0.0
2018-Aug-13 07:00N 59°54' E 030°13'0 0.0
2018-Aug-13 06:27N 59°54' E 030°13'0 0.0
2018-Aug-13 06:00N 59°54' E 030°13'0 0.0
2018-Aug-13 05:30N 59°54' E 030°13'0 0.0
2018-Aug-13 05:00N 59°54' E 030°13'0 0.0
2018-Aug-13 04:30N 59°54' E 030°13'0 0.0
2018-Aug-13 03:57N 59°54' E 030°13'0 0.0
2018-Aug-13 03:30N 59°54' E 030°13'0 0.0
2018-Aug-13 03:00N 59°54' E 030°13'0 0.0
2018-Aug-13 02:30N 59°54' E 030°13'0 0.0
2018-Aug-13 01:57N 59°54' E 030°13'0 0.0
2018-Aug-13 01:21N 59°54' E 030°13'0 0.0
2018-Aug-13 01:00N 59°54' E 030°13'0 0.0
2018-Aug-13 00:30N 59°54' E 030°13'0 0.0
2018-Aug-13 00:00N 59°54' E 030°13'0 0.0
2018-Aug-12 23:30N 59°54' E 030°13'0 0.0
2018-Aug-12 23:00N 59°54' E 030°13'0 0.0
2018-Aug-12 22:30N 59°54' E 030°13'0 0.0
2018-Aug-12 22:00N 59°54' E 030°13'0 0.0
2018-Aug-12 21:30N 59°54' E 030°13'0 0.0
2018-Aug-12 21:00N 59°54' E 030°13'0 0.0
2018-Aug-12 20:30N 59°54' E 030°13'0 0.0
2018-Aug-12 20:00N 59°54' E 030°13'0 0.0
2018-Aug-12 19:27N 59°54' E 030°13'0 0.0
2018-Aug-12 19:00N 59°54' E 030°13'0 0.0
2018-Aug-12 18:30N 59°54' E 030°13'0 0.0
2018-Aug-12 18:00N 59°54' E 030°13'0 0.0
2018-Aug-12 17:30N 59°54' E 030°13'0 0.0
2018-Aug-12 17:00N 59°54' E 030°13'0 0.0
2018-Aug-12 16:27N 59°54' E 030°13'0 0.0
2018-Aug-12 16:00N 59°54' E 030°13'0 0.0
2018-Aug-12 15:30N 59°54' E 030°13'0 0.0
2018-Aug-12 15:00N 59°54' E 030°13'0 0.0
2018-Aug-12 14:30N 59°54' E 030°13'0 0.0
2018-Aug-12 14:00N 59°54' E 030°13'0 0.0
2018-Aug-12 13:30N 59°54' E 030°13'0 0.0
2018-Aug-12 13:00N 59°54' E 030°13'0 0.0
2018-Aug-12 12:30N 59°54' E 030°13'0 0.0
2018-Aug-12 12:00N 59°54' E 030°13'0 0.0
2018-Aug-12 11:30N 59°54' E 030°13'0 0.0
2018-Aug-12 11:00N 59°54' E 030°13'0 0.0
2018-Aug-12 10:30N 59°54' E 030°13'0 0.0
2018-Aug-12 10:00N 59°54' E 030°13'0 0.0
2018-Aug-12 09:30N 59°54' E 030°13'0 0.0
2018-Aug-12 09:00N 59°54' E 030°13'0 0.0
2018-Aug-12 08:30N 59°54' E 030°13'0 0.0
2018-Aug-12 08:00N 59°54' E 030°13'0 0.0
2018-Aug-12 07:30N 59°54' E 030°13'0 0.0
2018-Aug-12 07:00N 59°54' E 030°13'0 0.0
2018-Aug-12 06:30N 59°54' E 030°13'0 0.0
2018-Aug-12 06:00N 59°54' E 030°13'0 0.0
2018-Aug-12 05:27N 59°54' E 030°13'0 0.0
2018-Aug-12 05:00N 59°54' E 030°13'0 0.0
2018-Aug-12 04:30N 59°54' E 030°13'0 0.0
2018-Aug-12 03:57N 59°54' E 030°13'0 0.0
2018-Aug-12 03:30N 59°54' E 030°13'0 0.0
2018-Aug-12 02:57N 59°54' E 030°13'0 0.0
2018-Aug-12 02:30N 59°54' E 030°13'0 0.0
2018-Aug-12 02:00N 59°54' E 030°13'0 0.0
2018-Aug-12 01:30N 59°54' E 030°13'0 0.0
2018-Aug-12 01:00N 59°54' E 030°13'0 0.0
2018-Aug-12 00:30N 59°54' E 030°13'0 0.0
2018-Aug-12 00:00N 59°54' E 030°13'0 0.0
2018-Aug-11 23:30N 59°54' E 030°13'0 0.0
2018-Aug-11 23:00N 59°54' E 030°13'0 0.0
2018-Aug-11 22:30N 59°54' E 030°13'0 0.0
2018-Aug-11 22:00N 59°54' E 030°13'0 0.0
2018-Aug-11 21:30N 59°54' E 030°13'0 0.0
2018-Aug-11 21:00N 59°54' E 030°13'0 0.0
2018-Aug-11 20:30N 59°54' E 030°13'0 0.0
2018-Aug-11 20:00N 59°54' E 030°13'0 0.0
2018-Aug-11 19:30N 59°54' E 030°13'0 0.0
2018-Aug-11 19:00N 59°54' E 030°13'0 0.0
2018-Aug-11 18:30N 59°54' E 030°13'0 0.0
2018-Aug-11 18:00N 59°54' E 030°13'0 0.0
2018-Aug-11 17:30N 59°54' E 030°13'0 0.0
2018-Aug-11 17:00N 59°54' E 030°13'0 0.0
2018-Aug-11 16:30N 59°54' E 030°13'0 0.0
2018-Aug-11 16:00N 59°54' E 030°13'0 0.0
2018-Aug-11 15:30N 59°54' E 030°13'0 0.0
2018-Aug-11 15:00N 59°54' E 030°13'0 0.0
2018-Aug-11 14:30N 59°54' E 030°13'0 0.0
2018-Aug-11 14:00N 59°54' E 030°13'0 0.0
2018-Aug-11 13:30N 59°54' E 030°13'0 0.0
2018-Aug-11 13:00N 59°54' E 030°13'0 0.0
2018-Aug-11 12:30N 59°54' E 030°13'0 0.0
2018-Aug-11 12:00N 59°54' E 030°13'0 0.0
2018-Aug-11 11:30N 59°54' E 030°13'0 0.0
2018-Aug-11 11:00N 59°54' E 030°13'0 0.0
2018-Aug-11 10:30N 59°54' E 030°13'0 0.0
2018-Aug-11 10:00N 59°54' E 030°13'0 0.0
2018-Aug-11 09:30N 59°54' E 030°13'0 0.0
2018-Aug-11 09:00N 59°54' E 030°13'0 0.0
2018-Aug-11 08:30N 59°54' E 030°13'0 0.0
2018-Aug-11 08:00N 59°54' E 030°13'0 0.0
2018-Aug-11 07:30N 59°54' E 030°13'0 0.0
2018-Aug-11 07:00N 59°54' E 030°13'0 0.0
2018-Aug-11 06:30N 59°54' E 030°13'0 0.0
2018-Aug-11 06:00N 59°54' E 030°13'0 0.0
2018-Aug-11 05:30N 59°54' E 030°13'0 0.0
2018-Aug-11 05:00N 59°54' E 030°13'0 0.0
2018-Aug-11 04:30N 59°54' E 030°13'0 0.0
2018-Aug-11 04:00N 59°54' E 030°13'0 0.0
2018-Aug-11 03:30N 59°54' E 030°13'0 0.0
2018-Aug-11 03:00N 59°54' E 030°13'0 0.0
2018-Aug-11 02:30N 59°54' E 030°13'0 0.0
2018-Aug-11 02:00N 59°54' E 030°13'0 0.0
2018-Aug-11 01:30N 59°54' E 030°13'0 0.0
2018-Aug-11 01:00N 59°54' E 030°13'0 0.0
2018-Aug-11 00:30N 59°54' E 030°13'0 0.0
2018-Aug-11 00:00N 59°54' E 030°13'0 0.0
2018-Aug-10 23:30N 59°54' E 030°13'0 0.0
2018-Aug-10 23:00N 59°54' E 030°13'0 0.0
2018-Aug-10 22:30N 59°54' E 030°13'0 0.0
2018-Aug-10 22:00N 59°54' E 030°13'0 0.0
2018-Aug-10 21:30N 59°54' E 030°13'0 0.0
2018-Aug-10 21:00N 59°54' E 030°13'0 0.0
2018-Aug-10 20:21N 59°54' E 030°13'0 0.0
2018-Aug-10 20:00N 59°54' E 030°13'0 0.0
2018-Aug-10 19:30N 59°54' E 030°13'0 0.0
2018-Aug-10 19:00N 59°54' E 030°13'0 0.0
2018-Aug-10 18:30N 59°54' E 030°13'0 0.1
2018-Aug-10 18:00N 59°54' E 030°13'1 1.9
2018-Aug-10 17:30N 59°54' E 030°14'1 2.3
2018-Aug-10 17:00N 59°55' E 030°12'3 6.6
2018-Aug-10 16:30N 59°57' E 030°06'5 9.8
2018-Aug-10 16:00N 59°56' E 029°56'611.6
2018-Aug-10 15:30N 59°59' E 029°46'1211.7
2018-Aug-10 14:27N 60°02' E 029°22'511.5
2018-Aug-10 14:00N 60°02' E 029°12'713.6
2018-Aug-10 13:30N 60°02' E 028°58'612.5
2018-Aug-10 13:00N 60°02' E 028°46'713.7
2018-Aug-10 12:30N 60°02' E 028°32'713.2
2018-Aug-10 11:58N 60°05' E 028°19'511.6
2018-Aug-10 11:30N 60°08' E 028°09'713.0
2018-Aug-10 10:59N 60°10' E 027°56'511.2
2018-Aug-10 10:30N 60°11' E 027°46'713.9
2018-Aug-10 10:00N 60°07' E 027°34'510.7
2018-Aug-10 09:30N 60°04' E 027°25'712.5
2018-Aug-10 08:59N 60°01' E 027°14'613.4
2018-Aug-10 08:30N 59°58' E 027°02'611.2
2018-Aug-10 08:00N 59°59' E 026°51'612.0
2018-Aug-10 07:31N 59°59' E 026°39'612.2
2018-Aug-10 07:01N 59°58' E 026°28'612.4
2018-Aug-10 06:30N 59°56' E 026°15'611.9
2018-Aug-10 06:00N 59°55' E 026°04'712.1
2018-Aug-10 05:24N 59°53' E 025°50'512.2
2018-Aug-10 04:59N 59°51' E 025°40'612.2
2018-Aug-10 04:31N 59°50' E 025°29'612.1
2018-Aug-10 04:00N 59°49' E 025°17'612.1
2018-Aug-10 03:31N 59°47' E 025°06'612.1
2018-Aug-10 03:00N 59°46' E 024°54'612.1
2018-Aug-10 02:29N 59°44' E 024°42'612.1
2018-Aug-10 01:59N 59°41' E 024°31'612.0
2018-Aug-10 01:29N 59°36' E 024°25'511.5
2018-Aug-10 01:00N 59°31' E 024°29'611.5
2018-Aug-10 00:31N 59°28' E 024°38'1 1.1
2018-Aug-10 00:00N 59°28' E 024°39'0 0.0
2018-Aug-09 23:30N 59°28' E 024°39'0 0.0
2018-Aug-09 23:00N 59°28' E 024°39'0 0.0
2018-Aug-09 22:30N 59°28' E 024°39'0 0.0
2018-Aug-09 22:00N 59°28' E 024°39'0 0.0
2018-Aug-09 21:30N 59°28' E 024°39'0 0.0
2018-Aug-09 21:00N 59°28' E 024°39'0 0.0
2018-Aug-09 20:30N 59°28' E 024°39'0 0.0
2018-Aug-09 20:00N 59°28' E 024°39'0 0.0
2018-Aug-09 19:30N 59°28' E 024°39'0 0.0
2018-Aug-09 19:00N 59°28' E 024°39'0 0.0
2018-Aug-09 18:30N 59°28' E 024°39'0 0.0
2018-Aug-09 18:00N 59°28' E 024°39'0 0.0
2018-Aug-09 17:30N 59°28' E 024°39'0 0.0
2018-Aug-09 17:00N 59°28' E 024°39'0 0.0
2018-Aug-09 16:30N 59°28' E 024°39'0 0.0
2018-Aug-09 16:00N 59°28' E 024°39'0 0.0
2018-Aug-09 15:30N 59°28' E 024°39'0 0.0
2018-Aug-09 15:00N 59°28' E 024°39'0 0.0
2018-Aug-09 14:30N 59°28' E 024°39'0 0.0
2018-Aug-09 13:57N 59°28' E 024°39'0 0.0
2018-Aug-09 13:30N 59°28' E 024°39'0 0.0
2018-Aug-09 13:00N 59°28' E 024°39'0 0.0
2018-Aug-09 12:30N 59°28' E 024°39'0 0.0
2018-Aug-09 12:00N 59°28' E 024°39'0 0.0
2018-Aug-09 11:30N 59°28' E 024°39'0 0.0
2018-Aug-09 11:00N 59°28' E 024°39'0 0.0
2018-Aug-09 10:30N 59°28' E 024°39'0 0.0
2018-Aug-09 10:00N 59°28' E 024°39'0 0.0
2018-Aug-09 09:30N 59°28' E 024°39'0 0.0
2018-Aug-09 09:00N 59°28' E 024°39'0 0.0
2018-Aug-09 08:30N 59°28' E 024°39'0 0.0
2018-Aug-09 08:00N 59°28' E 024°39'0 0.0
2018-Aug-09 07:30N 59°28' E 024°39'0 0.0
2018-Aug-09 07:00N 59°28' E 024°39'0 0.0
2018-Aug-09 06:24N 59°28' E 024°39'0 0.0
2018-Aug-09 06:00N 59°28' E 024°39'0 0.0
2018-Aug-09 05:24N 59°28' E 024°39'0 0.0
2018-Aug-09 05:00N 59°28' E 024°39'0 0.0
2018-Aug-09 04:30N 59°28' E 024°39'0 0.0
2018-Aug-09 03:57N 59°28' E 024°39'0 0.0
2018-Aug-09 03:30N 59°28' E 024°39'0 0.0
2018-Aug-09 03:00N 59°28' E 024°39'0 0.0
2018-Aug-09 02:29N 59°28' E 024°39'0 0.0
2018-Aug-09 02:00N 59°28' E 024°39'0 0.0
2018-Aug-09 01:28N 59°28' E 024°39'0 0.0
2018-Aug-09 01:00N 59°28' E 024°39'0 0.0
2018-Aug-09 00:30N 59°28' E 024°39'0 0.0
2018-Aug-08 23:57N 59°28' E 024°39'0 0.0
2018-Aug-08 23:28N 59°28' E 024°39'0 0.0
2018-Aug-08 22:58N 59°28' E 024°39'0 0.0
2018-Aug-08 22:31N 59°28' E 024°39'0 0.0
2018-Aug-08 21:57N 59°28' E 024°39'0 0.0
2018-Aug-08 21:27N 59°28' E 024°39'0 0.0
2018-Aug-08 20:51N 59°28' E 024°39'0 0.0
2018-Aug-08 20:21N 59°28' E 024°39'0 0.0
2018-Aug-08 19:45N 59°28' E 024°39'0 0.0
2018-Aug-08 19:27N 59°28' E 024°39'0 0.0
2018-Aug-08 18:57N 59°28' E 024°39'0 0.0
2018-Aug-08 18:15N 59°28' E 024°39'0 0.0
2018-Aug-08 17:51N 59°28' E 024°39'0 0.0
2018-Aug-08 17:21N 59°28' E 024°39'0 0.0
2018-Aug-08 16:48N 59°28' E 024°39'0 0.0
2018-Aug-08 16:27N 59°28' E 024°39'0 0.0
2018-Aug-08 15:45N 59°28' E 024°39'0 0.0
2018-Aug-08 15:27N 59°28' E 024°39'0 0.0
2018-Aug-08 14:51N 59°28' E 024°39'0 0.0
2018-Aug-08 14:21N 59°28' E 024°39'0 0.0
2018-Aug-08 13:51N 59°28' E 024°39'0 0.0
2018-Aug-08 13:27N 59°28' E 024°39'0 0.0
2018-Aug-08 12:57N 59°28' E 024°39'0 0.0
2018-Aug-08 12:27N 59°28' E 024°39'0 0.0
2018-Aug-08 11:39N 59°28' E 024°39'0 0.0
2018-Aug-08 07:39N 59°28' E 024°39'0 0.0
2018-Aug-08 06:51N 59°28' E 024°39'0 0.0
2018-Aug-08 06:25N 59°28' E 024°39'0 0.0
2018-Aug-08 06:00N 59°28' E 024°39'0 0.0
2018-Aug-08 05:29N 59°28' E 024°39'0 0.0
2018-Aug-08 05:00N 59°28' E 024°39'0 0.0
2018-Aug-08 04:30N 59°28' E 024°39'0 0.0
2018-Aug-08 03:59N 59°28' E 024°39'0 0.0
2018-Aug-08 03:28N 59°28' E 024°39'0 0.0
2018-Aug-08 02:44N 59°28' E 024°39'0 0.0
2018-Aug-08 02:25N 59°28' E 024°39'0 0.0
2018-Aug-08 02:00N 59°28' E 024°39'0 0.0
2018-Aug-08 01:30N 59°28' E 024°39'0 0.0
2018-Aug-08 00:57N 59°28' E 024°39'0 0.0
2018-Aug-08 00:30N 59°28' E 024°39'0 0.0
2018-Aug-07 23:54N 59°28' E 024°39'0 0.0
2018-Aug-07 23:27N 59°28' E 024°39'0 0.0
2018-Aug-07 23:00N 59°28' E 024°39'0 0.0
2018-Aug-07 22:30N 59°28' E 024°39'0 0.0
2018-Aug-07 21:58N 59°28' E 024°39'0 0.0
2018-Aug-07 21:28N 59°28' E 024°39'0 0.0
2018-Aug-07 21:00N 59°28' E 024°39'0 0.0
2018-Aug-07 20:30N 59°28' E 024°39'0 0.0
2018-Aug-07 19:50N 59°28' E 024°39'0 0.0
2018-Aug-07 19:30N 59°28' E 024°39'0 0.0
2018-Aug-07 19:00N 59°28' E 024°39'0 0.0
2018-Aug-07 18:22N 59°28' E 024°39'0 0.0
2018-Aug-07 17:58N 59°28' E 024°39'0 0.0
2018-Aug-07 17:28N 59°28' E 024°39'0 0.0
2018-Aug-07 16:57N 59°28' E 024°39'0 0.0
2018-Aug-07 16:28N 59°28' E 024°39'0 0.0
2018-Aug-07 16:00N 59°28' E 024°39'0 0.0
2018-Aug-07 15:27N 59°28' E 024°39'0 0.0
2018-Aug-07 14:57N 59°28' E 024°39'0 0.0
2018-Aug-07 14:30N 59°28' E 024°39'0 0.0
2018-Aug-07 14:00N 59°28' E 024°39'0 0.0
2018-Aug-07 13:27N 59°28' E 024°39'0 0.0
2018-Aug-07 13:00N 59°28' E 024°39'0 0.0
2018-Aug-07 12:24N 59°28' E 024°39'0 0.0
2018-Aug-07 11:57N 59°28' E 024°39'0 0.0
2018-Aug-07 11:30N 59°28' E 024°39'0 0.0
2018-Aug-07 11:00N 59°28' E 024°39'0 0.0
2018-Aug-07 10:30N 59°28' E 024°39'0 0.0
2018-Aug-07 09:57N 59°28' E 024°39'0 0.0
2018-Aug-07 09:30N 59°28' E 024°39'0 0.0
2018-Aug-07 09:00N 59°28' E 024°39'0 0.0
2018-Aug-07 08:30N 59°28' E 024°39'0 0.0
2018-Aug-07 07:54N 59°28' E 024°39'0 0.0
2018-Aug-07 07:27N 59°28' E 024°39'0 0.0
2018-Aug-07 06:59N 59°28' E 024°39'0 0.0
2018-Aug-07 06:27N 59°28' E 024°39'  
Track history (hours):
 
Tides and Currents Weather Stations Pressure Air Temp Water Temp Dewpoint Dewpoint Depression Visibility Wind Speed Wind Dir Waves Ship Positions

Kaisa

Last reported at 2018-Aug-17 06:20 UTC. Time now 2018-Aug-21 03:55 UTC.
Position N 56°13' E 012°17'.

Length 90 m; draft 4.9 m.

Type: Cargo ship. MMSI: 249399000.

Date/timePositionNaut miles runAvg speedWind from/ knotsBaromVisibWave heightAir tempDewpointWater temp
2018-Aug-17 06:20N 56°13' E 012°17'3 8.5
2018-Aug-17 06:00N 56°11' E 012°22'510.6
2018-Aug-17 05:30N 56°08' E 012°30'611.1
2018-Aug-17 05:00N 56°05' E 012°37'510.4
2018-Aug-17 04:30N 55°60' E 012°41'510.7
2018-Aug-17 04:00N 55°55' E 012°44'510.5
2018-Aug-17 03:30N 55°50' E 012°43'510.6
2018-Aug-17 03:01N 55°44' E 012°42'510.6
2018-Aug-17 02:30N 55°39' E 012°42'510.3
2018-Aug-17 02:00N 55°34' E 012°42'510.1
2018-Aug-17 01:29N 55°29' E 012°43'510.5
2018-Aug-17 01:00N 55°24' E 012°42'510.1
2018-Aug-17 00:30N 55°19' E 012°42'5 9.6
2018-Aug-17 00:00N 55°17' E 012°49'510.0
2018-Aug-16 23:30N 55°16' E 012°58'510.0
2018-Aug-16 23:01N 55°16' E 013°07'5 9.9
2018-Aug-16 22:30N 55°15' E 013°15'510.2
2018-Aug-16 22:00N 55°15' E 013°24'510.2
2018-Aug-16 21:30N 55°15' E 013°33'510.1
2018-Aug-16 21:00N 55°14' E 013°42'510.2
2018-Aug-16 20:30N 55°14' E 013°51'510.5
2018-Aug-16 20:00N 55°14' E 014°00'510.5
2018-Aug-16 19:30N 55°14' E 014°09'5 9.4
2018-Aug-16 19:00N 55°15' E 014°17'510.3
2018-Aug-16 18:30N 55°19' E 014°23'510.1
2018-Aug-16 18:00N 55°23' E 014°29'510.3
2018-Aug-16 17:30N 55°27' E 014°34'510.4
2018-Aug-16 17:00N 55°29' E 014°42'510.4
2018-Aug-16 16:30N 55°32' E 014°50'510.3
2018-Aug-16 16:00N 55°35' E 014°58'510.4
2018-Aug-16 15:30N 55°37' E 015°06'510.3
2018-Aug-16 15:00N 55°40' E 015°14'510.2
2018-Aug-16 14:30N 55°42' E 015°22'510.5
2018-Aug-16 14:00N 55°45' E 015°30'510.6
2018-Aug-16 13:30N 55°48' E 015°38'510.4
2018-Aug-16 13:00N 55°50' E 015°46'510.5
2018-Aug-16 12:30N 55°53' E 015°54'510.5
2018-Aug-16 12:00N 55°55' E 016°02'510.7
2018-Aug-16 11:30N 55°58' E 016°10'510.4
2018-Aug-16 11:00N 56°01' E 016°18'510.4
2018-Aug-16 10:30N 56°03' E 016°26'510.6
2018-Aug-16 10:00N 56°06' E 016°35'510.6
2018-Aug-16 09:30N 56°09' E 016°43'1510.3
2018-Aug-16 08:01N 56°18' E 017°05'010.1
2018-Aug-16 08:00N 56°18' E 017°05'27310.4
2018-Aug-15 05:51N 59°35' E 023°01'410.7
2018-Aug-15 05:30N 59°36' E 023°08'510.7
2018-Aug-15 05:00N 59°38' E 023°18'510.6
2018-Aug-15 04:30N 59°39' E 023°29'510.6
2018-Aug-15 04:00N 59°41' E 023°38'2610.7
2018-Aug-15 01:36N 59°48' E 024°27'110.1
2018-Aug-15 01:30N 59°48' E 024°29'510.1
2018-Aug-15 01:00N 59°49' E 024°39'510.3
2018-Aug-15 00:30N 59°51' E 024°49'510.3
2018-Aug-15 00:00N 59°52' E 024°59'4210.7
2018-Aug-14 20:06N 59°60' E 026°21'311.0
2018-Aug-14 19:49N 60°01' E 026°27'410.9
2018-Aug-14 19:29N 60°02' E 026°33'2410.2
2018-Aug-14 17:06N 60°05' E 027°22'110.9
2018-Aug-14 16:59N 60°06' E 027°24'1110.7
2018-Aug-14 16:00N 60°11' E 027°42'5 9.6
2018-Aug-14 15:30N 60°11' E 027°52'510.3
2018-Aug-14 15:00N 60°10' E 028°02'510.3
2018-Aug-14 14:29N 60°09' E 028°12'5 9.9
2018-Aug-14 14:00N 60°06' E 028°20'510.1
2018-Aug-14 13:30N 60°04' E 028°29'5 9.9
2018-Aug-14 13:00N 60°03' E 028°39'3410.1
2018-Aug-14 09:41N 59°59' E 029°45'210.4
2018-Aug-14 09:31N 59°58' E 029°48'510.5
2018-Aug-14 09:00N 59°56' E 029°58'5 9.8
2018-Aug-14 08:31N 59°54' E 030°07'3 6.1
2018-Aug-14 08:01N 59°53' E 030°13'0 0.3
2018-Aug-14 07:30N 59°54' E 030°13'0 0.0
2018-Aug-14 07:00N 59°54' E 030°13'0 0.0
2018-Aug-14 06:30N 59°54' E 030°13'0 0.0
2018-Aug-14 06:00N 59°54' E 030°13'0 0.0
2018-Aug-14 05:30N 59°54' E 030°13'0 0.0
2018-Aug-14 05:00N 59°54' E 030°13'0 0.0
2018-Aug-14 04:30N 59°54' E 030°13'0 0.0
2018-Aug-14 04:00N 59°54' E 030°13'0 0.0
2018-Aug-14 03:30N 59°54' E 030°13'0 0.0
2018-Aug-14 03:00N 59°54' E 030°13'0 0.0
2018-Aug-14 02:30N 59°54' E 030°13'0 0.0
2018-Aug-14 02:00N 59°54' E 030°13'0 0.0
2018-Aug-14 01:30N 59°54' E 030°13'0 0.0
2018-Aug-14 01:00N 59°54' E 030°13'0 0.0
2018-Aug-14 00:30N 59°54' E 030°13'0 0.0
2018-Aug-14 00:00N 59°54' E 030°13'0 0.0
2018-Aug-13 23:30N 59°54' E 030°13'0 0.0
2018-Aug-13 23:00N 59°54' E 030°13'0 0.0
2018-Aug-13 22:30N 59°54' E 030°13'0 0.0
2018-Aug-13 22:00N 59°54' E 030°13'0 0.0
2018-Aug-13 21:30N 59°54' E 030°13'0 0.0
2018-Aug-13 21:00N 59°54' E 030°13'0 0.0
2018-Aug-13 20:30N 59°54' E 030°13'0 0.0
2018-Aug-13 20:00N 59°54' E 030°13'0 0.0
2018-Aug-13 19:30N 59°54' E 030°13'0 0.0
2018-Aug-13 19:00N 59°54' E 030°13'0 0.0
2018-Aug-13 18:30N 59°54' E 030°13'0 0.0
2018-Aug-13 18:00N 59°54' E 030°13'0 0.0
2018-Aug-13 17:30N 59°54' E 030°13'0 0.0
2018-Aug-13 17:00N 59°54' E 030°13'0 0.0
2018-Aug-13 16:30N 59°54' E 030°13'0 0.0
2018-Aug-13 16:00N 59°54' E 030°13'0 0.0
2018-Aug-13 15:30N 59°54' E 030°13'0 0.0
2018-Aug-13 15:00N 59°54' E 030°13'0 0.0
2018-Aug-13 14:30N 59°54' E 030°13'0 0.0
2018-Aug-13 14:00N 59°54' E 030°13'0 0.0
2018-Aug-13 13:30N 59°54' E 030°13'0 0.0
2018-Aug-13 13:00N 59°54' E 030°13'0 0.0
2018-Aug-13 12:30N 59°54' E 030°13'0 0.0
2018-Aug-13 12:00N 59°54' E 030°13'0 0.0
2018-Aug-13 11:30N 59°54' E 030°13'0 0.0
2018-Aug-13 11:00N 59°54' E 030°13'0 0.0
2018-Aug-13 10:30N 59°54' E 030°13'0 0.0
2018-Aug-13 10:00N 59°54' E 030°13'0 0.0
2018-Aug-13 09:30N 59°54' E 030°13'0 0.0
2018-Aug-13 08:54N 59°54' E 030°13'0 0.0
2018-Aug-13 08:30N 59°54' E 030°13'0 0.0
2018-Aug-13 08:00N 59°54' E 030°13'0 0.0
2018-Aug-13 07:30N 59°54' E 030°13'0 0.0
2018-Aug-13 07:00N 59°54' E 030°13'0 0.0
2018-Aug-13 06:27N 59°54' E 030°13'0 0.0
2018-Aug-13 06:00N 59°54' E 030°13'0 0.0
2018-Aug-13 05:30N 59°54' E 030°13'0 0.0
2018-Aug-13 05:00N 59°54' E 030°13'0 0.0
2018-Aug-13 04:30N 59°54' E 030°13'0 0.0
2018-Aug-13 03:57N 59°54' E 030°13'0 0.0
2018-Aug-13 03:30N 59°54' E 030°13'0 0.0
2018-Aug-13 03:00N 59°54' E 030°13'0 0.0
2018-Aug-13 02:30N 59°54' E 030°13'0 0.0
2018-Aug-13 01:57N 59°54' E 030°13'0 0.0
2018-Aug-13 01:21N 59°54' E 030°13'0 0.0
2018-Aug-13 01:00N 59°54' E 030°13'0 0.0
2018-Aug-13 00:30N 59°54' E 030°13'0 0.0
2018-Aug-13 00:00N 59°54' E 030°13'0 0.0
2018-Aug-12 23:30N 59°54' E 030°13'0 0.0
2018-Aug-12 23:00N 59°54' E 030°13'0 0.0
2018-Aug-12 22:30N 59°54' E 030°13'0 0.0
2018-Aug-12 22:00N 59°54' E 030°13'0 0.0
2018-Aug-12 21:30N 59°54' E 030°13'0 0.0
2018-Aug-12 21:00N 59°54' E 030°13'0 0.0
2018-Aug-12 20:30N 59°54' E 030°13'0 0.0
2018-Aug-12 20:00N 59°54' E 030°13'0 0.0
2018-Aug-12 19:27N 59°54' E 030°13'0 0.0
2018-Aug-12 19:00N 59°54' E 030°13'0 0.0
2018-Aug-12 18:30N 59°54' E 030°13'0 0.0
2018-Aug-12 18:00N 59°54' E 030°13'0 0.0
2018-Aug-12 17:30N 59°54' E 030°13'0 0.0
2018-Aug-12 17:00N 59°54' E 030°13'0 0.0
2018-Aug-12 16:27N 59°54' E 030°13'0 0.0
2018-Aug-12 16:00N 59°54' E 030°13'0 0.0
2018-Aug-12 15:30N 59°54' E 030°13'0 0.0
2018-Aug-12 15:00N 59°54' E 030°13'0 0.0
2018-Aug-12 14:30N 59°54' E 030°13'0 0.0
2018-Aug-12 14:00N 59°54' E 030°13'0 0.0
2018-Aug-12 13:30N 59°54' E 030°13'0 0.0
2018-Aug-12 13:00N 59°54' E 030°13'0 0.0
2018-Aug-12 12:30N 59°54' E 030°13'0 0.0
2018-Aug-12 12:00N 59°54' E 030°13'0 0.0
2018-Aug-12 11:30N 59°54' E 030°13'0 0.0
2018-Aug-12 11:00N 59°54' E 030°13'0 0.0
2018-Aug-12 10:30N 59°54' E 030°13'0 0.0
2018-Aug-12 10:00N 59°54' E 030°13'0 0.0
2018-Aug-12 09:30N 59°54' E 030°13'0 0.0
2018-Aug-12 09:00N 59°54' E 030°13'0 0.0
2018-Aug-12 08:30N 59°54' E 030°13'0 0.0
2018-Aug-12 08:00N 59°54' E 030°13'0 0.0
2018-Aug-12 07:30N 59°54' E 030°13'0 0.0
2018-Aug-12 07:00N 59°54' E 030°13'0 0.0
2018-Aug-12 06:30N 59°54' E 030°13'0 0.0
2018-Aug-12 06:00N 59°54' E 030°13'0 0.0
2018-Aug-12 05:27N 59°54' E 030°13'0 0.0
2018-Aug-12 05:00N 59°54' E 030°13'0 0.0
2018-Aug-12 04:30N 59°54' E 030°13'0 0.0
2018-Aug-12 03:57N 59°54' E 030°13'0 0.0
2018-Aug-12 03:30N 59°54' E 030°13'0 0.0
2018-Aug-12 02:57N 59°54' E 030°13'0 0.0
2018-Aug-12 02:30N 59°54' E 030°13'0 0.0
2018-Aug-12 02:00N 59°54' E 030°13'0 0.0
2018-Aug-12 01:30N 59°54' E 030°13'0 0.0
2018-Aug-12 01:00N 59°54' E 030°13'0 0.0
2018-Aug-12 00:30N 59°54' E 030°13'0 0.0
2018-Aug-12 00:00N 59°54' E 030°13'0 0.0
2018-Aug-11 23:30N 59°54' E 030°13'0 0.0
2018-Aug-11 23:00N 59°54' E 030°13'0 0.0
2018-Aug-11 22:30N 59°54' E 030°13'0 0.0
2018-Aug-11 22:00N 59°54' E 030°13'0 0.0
2018-Aug-11 21:30N 59°54' E 030°13'0 0.0
2018-Aug-11 21:00N 59°54' E 030°13'0 0.0
2018-Aug-11 20:30N 59°54' E 030°13'0 0.0
2018-Aug-11 20:00N 59°54' E 030°13'0 0.0
2018-Aug-11 19:30N 59°54' E 030°13'0 0.0
2018-Aug-11 19:00N 59°54' E 030°13'0 0.0
2018-Aug-11 18:30N 59°54' E 030°13'0 0.0
2018-Aug-11 18:00N 59°54' E 030°13'0 0.0
2018-Aug-11 17:30N 59°54' E 030°13'0 0.0
2018-Aug-11 17:00N 59°54' E 030°13'0 0.0
2018-Aug-11 16:30N 59°54' E 030°13'0 0.0
2018-Aug-11 16:00N 59°54' E 030°13'0 0.0
2018-Aug-11 15:30N 59°54' E 030°13'0 0.0
2018-Aug-11 15:00N 59°54' E 030°13'0 0.0
2018-Aug-11 14:30N 59°54' E 030°13'0 0.0
2018-Aug-11 14:00N 59°54' E 030°13'0 0.0
2018-Aug-11 13:30N 59°54' E 030°13'0 0.0
2018-Aug-11 13:00N 59°54' E 030°13'0 0.0
2018-Aug-11 12:30N 59°54' E 030°13'0 0.0
2018-Aug-11 12:00N 59°54' E 030°13'0 0.0
2018-Aug-11 11:30N 59°54' E 030°13'0 0.0
2018-Aug-11 11:00N 59°54' E 030°13'0 0.0
2018-Aug-11 10:30N 59°54' E 030°13'0 0.0
2018-Aug-11 10:00N 59°54' E 030°13'0 0.0
2018-Aug-11 09:30N 59°54' E 030°13'0 0.0
2018-Aug-11 09:00N 59°54' E 030°13'0 0.0
2018-Aug-11 08:30N 59°54' E 030°13'0 0.0
2018-Aug-11 08:00N 59°54' E 030°13'0 0.0
2018-Aug-11 07:30N 59°54' E 030°13'0 0.0
2018-Aug-11 07:00N 59°54' E 030°13'0 0.0
2018-Aug-11 06:30N 59°54' E 030°13'0 0.0
2018-Aug-11 06:00N 59°54' E 030°13'0 0.0
2018-Aug-11 05:30N 59°54' E 030°13'0 0.0
2018-Aug-11 05:00N 59°54' E 030°13'0 0.0
2018-Aug-11 04:30N 59°54' E 030°13'0 0.0
2018-Aug-11 04:00N 59°54' E 030°13'0 0.0
2018-Aug-11 03:30N 59°54' E 030°13'0 0.0
2018-Aug-11 03:00N 59°54' E 030°13'0 0.0
2018-Aug-11 02:30N 59°54' E 030°13'0 0.0
2018-Aug-11 02:00N 59°54' E 030°13'0 0.0
2018-Aug-11 01:30N 59°54' E 030°13'0 0.0
2018-Aug-11 01:00N 59°54' E 030°13'0 0.0
2018-Aug-11 00:30N 59°54' E 030°13'0 0.0
2018-Aug-11 00:00N 59°54' E 030°13'0 0.0
2018-Aug-10 23:30N 59°54' E 030°13'0 0.0
2018-Aug-10 23:00N 59°54' E 030°13'0 0.0
2018-Aug-10 22:30N 59°54' E 030°13'0 0.0
2018-Aug-10 22:00N 59°54' E 030°13'0 0.0
2018-Aug-10 21:30N 59°54' E 030°13'0 0.0
2018-Aug-10 21:00N 59°54' E 030°13'0 0.0
2018-Aug-10 20:21N 59°54' E 030°13'0 0.0
2018-Aug-10 20:00N 59°54' E 030°13'0 0.0
2018-Aug-10 19:30N 59°54' E 030°13'0 0.0
2018-Aug-10 19:00N 59°54' E 030°13'0 0.0
2018-Aug-10 18:30N 59°54' E 030°13'0 0.1
2018-Aug-10 18:00N 59°54' E 030°13'1 1.9
2018-Aug-10 17:30N 59°54' E 030°14'1 2.3
2018-Aug-10 17:00N 59°55' E 030°12'3 6.6
2018-Aug-10 16:30N 59°57' E 030°06'5 9.8
2018-Aug-10 16:00N 59°56' E 029°56'611.6
2018-Aug-10 15:30N 59°59' E 029°46'1211.7
2018-Aug-10 14:27N 60°02' E 029°22'511.5
2018-Aug-10 14:00N 60°02' E 029°12'713.6
2018-Aug-10 13:30N 60°02' E 028°58'612.5
2018-Aug-10 13:00N 60°02' E 028°46'713.7
2018-Aug-10 12:30N 60°02' E 028°32'713.2
2018-Aug-10 11:58N 60°05' E 028°19'511.6
2018-Aug-10 11:30N 60°08' E 028°09'713.0
2018-Aug-10 10:59N 60°10' E 027°56'511.2
2018-Aug-10 10:30N 60°11' E 027°46'713.9
2018-Aug-10 10:00N 60°07' E 027°34'510.7
2018-Aug-10 09:30N 60°04' E 027°25'712.5
2018-Aug-10 08:59N 60°01' E 027°14'613.4
2018-Aug-10 08:30N 59°58' E 027°02'611.2
2018-Aug-10 08:00N 59°59' E 026°51'612.0
2018-Aug-10 07:31N 59°59' E 026°39'612.2
2018-Aug-10 07:01N 59°58' E 026°28'612.4
2018-Aug-10 06:30N 59°56' E 026°15'611.9
2018-Aug-10 06:00N 59°55' E 026°04'712.1
2018-Aug-10 05:24N 59°53' E 025°50'512.2
2018-Aug-10 04:59N 59°51' E 025°40'612.2
2018-Aug-10 04:31N 59°50' E 025°29'612.1
2018-Aug-10 04:00N 59°49' E 025°17'612.1
2018-Aug-10 03:31N 59°47' E 025°06'612.1
2018-Aug-10 03:00N 59°46' E 024°54'612.1
2018-Aug-10 02:29N 59°44' E 024°42'612.1
2018-Aug-10 01:59N 59°41' E 024°31'612.0
2018-Aug-10 01:29N 59°36' E 024°25'511.5
2018-Aug-10 01:00N 59°31' E 024°29'611.5
2018-Aug-10 00:31N 59°28' E 024°38'1 1.1
2018-Aug-10 00:00N 59°28' E 024°39'0 0.0
2018-Aug-09 23:30N 59°28' E 024°39'0 0.0
2018-Aug-09 23:00N 59°28' E 024°39'0 0.0
2018-Aug-09 22:30N 59°28' E 024°39'0 0.0
2018-Aug-09 22:00N 59°28' E 024°39'0 0.0
2018-Aug-09 21:30N 59°28' E 024°39'0 0.0
2018-Aug-09 21:00N 59°28' E 024°39'0 0.0
2018-Aug-09 20:30N 59°28' E 024°39'0 0.0
2018-Aug-09 20:00N 59°28' E 024°39'0 0.0
2018-Aug-09 19:30N 59°28' E 024°39'0 0.0
2018-Aug-09 19:00N 59°28' E 024°39'0 0.0
2018-Aug-09 18:30N 59°28' E 024°39'0 0.0
2018-Aug-09 18:00N 59°28' E 024°39'0 0.0
2018-Aug-09 17:30N 59°28' E 024°39'0 0.0
2018-Aug-09 17:00N 59°28' E 024°39'0 0.0
2018-Aug-09 16:30N 59°28' E 024°39'0 0.0
2018-Aug-09 16:00N 59°28' E 024°39'0 0.0
2018-Aug-09 15:30N 59°28' E 024°39'0 0.0
2018-Aug-09 15:00N 59°28' E 024°39'0 0.0
2018-Aug-09 14:30N 59°28' E 024°39'0 0.0
2018-Aug-09 13:57N 59°28' E 024°39'0 0.0
2018-Aug-09 13:30N 59°28' E 024°39'0 0.0
2018-Aug-09 13:00N 59°28' E 024°39'0 0.0
2018-Aug-09 12:30N 59°28' E 024°39'0 0.0
2018-Aug-09 12:00N 59°28' E 024°39'0 0.0
2018-Aug-09 11:30N 59°28' E 024°39'0 0.0
2018-Aug-09 11:00N 59°28' E 024°39'0 0.0
2018-Aug-09 10:30N 59°28' E 024°39'0 0.0
2018-Aug-09 10:00N 59°28' E 024°39'0 0.0
2018-Aug-09 09:30N 59°28' E 024°39'0 0.0
2018-Aug-09 09:00N 59°28' E 024°39'0 0.0
2018-Aug-09 08:30N 59°28' E 024°39'0 0.0
2018-Aug-09 08:00N 59°28' E 024°39'0 0.0
2018-Aug-09 07:30N 59°28' E 024°39'0 0.0
2018-Aug-09 07:00N 59°28' E 024°39'0 0.0
2018-Aug-09 06:24N 59°28' E 024°39'0 0.0
2018-Aug-09 06:00N 59°28' E 024°39'0 0.0
2018-Aug-09 05:24N 59°28' E 024°39'0 0.0
2018-Aug-09 05:00N 59°28' E 024°39'0 0.0
2018-Aug-09 04:30N 59°28' E 024°39'0 0.0
2018-Aug-09 03:57N 59°28' E 024°39'0 0.0
2018-Aug-09 03:30N 59°28' E 024°39'0 0.0
2018-Aug-09 03:00N 59°28' E 024°39'0 0.0
2018-Aug-09 02:29N 59°28' E 024°39'0 0.0
2018-Aug-09 02:00N 59°28' E 024°39'0 0.0
2018-Aug-09 01:28N 59°28' E 024°39'0 0.0
2018-Aug-09 01:00N 59°28' E 024°39'0 0.0
2018-Aug-09 00:30N 59°28' E 024°39'0 0.0
2018-Aug-08 23:57N 59°28' E 024°39'0 0.0
2018-Aug-08 23:28N 59°28' E 024°39'0 0.0
2018-Aug-08 22:58N 59°28' E 024°39'0 0.0
2018-Aug-08 22:31N 59°28' E 024°39'0 0.0
2018-Aug-08 21:57N 59°28' E 024°39'0 0.0
2018-Aug-08 21:27N 59°28' E 024°39'0 0.0
2018-Aug-08 20:51N 59°28' E 024°39'0 0.0
2018-Aug-08 20:21N 59°28' E 024°39'0 0.0
2018-Aug-08 19:45N 59°28' E 024°39'0 0.0
2018-Aug-08 19:27N 59°28' E 024°39'0 0.0
2018-Aug-08 18:57N 59°28' E 024°39'0 0.0
2018-Aug-08 18:15N 59°28' E 024°39'0 0.0
2018-Aug-08 17:51N 59°28' E 024°39'0 0.0
2018-Aug-08 17:21N 59°28' E 024°39'0 0.0
2018-Aug-08 16:48N 59°28' E 024°39'0 0.0
2018-Aug-08 16:27N 59°28' E 024°39'0 0.0
2018-Aug-08 15:45N 59°28' E 024°39'0 0.0
2018-Aug-08 15:27N 59°28' E 024°39'0 0.0
2018-Aug-08 14:51N 59°28' E 024°39'0 0.0
2018-Aug-08 14:21N 59°28' E 024°39'0 0.0
2018-Aug-08 13:51N 59°28' E 024°39'0 0.0
2018-Aug-08 13:27N 59°28' E 024°39'0 0.0
2018-Aug-08 12:57N 59°28' E 024°39'0 0.0
2018-Aug-08 12:27N 59°28' E 024°39'0 0.0
2018-Aug-08 11:39N 59°28' E 024°39'0 0.0
2018-Aug-08 07:39N 59°28' E 024°39'0 0.0
2018-Aug-08 06:51N 59°28' E 024°39'0 0.0
2018-Aug-08 06:25N 59°28' E 024°39'0 0.0
2018-Aug-08 06:00N 59°28' E 024°39'0 0.0
2018-Aug-08 05:29N 59°28' E 024°39'0 0.0
2018-Aug-08 05:00N 59°28' E 024°39'0 0.0
2018-Aug-08 04:30N 59°28' E 024°39'0 0.0
2018-Aug-08 03:59N 59°28' E 024°39'0 0.0
2018-Aug-08 03:28N 59°28' E 024°39'0 0.0
2018-Aug-08 02:44N 59°28' E 024°39'0 0.0
2018-Aug-08 02:25N 59°28' E 024°39'0 0.0
2018-Aug-08 02:00N 59°28' E 024°39'0 0.0
2018-Aug-08 01:30N 59°28' E 024°39'0 0.0
2018-Aug-08 00:57N 59°28' E 024°39'0 0.0
2018-Aug-08 00:30N 59°28' E 024°39'0 0.0
2018-Aug-07 23:54N 59°28' E 024°39'0 0.0
2018-Aug-07 23:27N 59°28' E 024°39'0 0.0
2018-Aug-07 23:00N 59°28' E 024°39'0 0.0
2018-Aug-07 22:30N 59°28' E 024°39'0 0.0
2018-Aug-07 21:58N 59°28' E 024°39'0 0.0
2018-Aug-07 21:28N 59°28' E 024°39'0 0.0
2018-Aug-07 21:00N 59°28' E 024°39'0 0.0
2018-Aug-07 20:30N 59°28' E 024°39'0 0.0
2018-Aug-07 19:50N 59°28' E 024°39'0 0.0
2018-Aug-07 19:30N 59°28' E 024°39'0 0.0
2018-Aug-07 19:00N 59°28' E 024°39'0 0.0
2018-Aug-07 18:22N 59°28' E 024°39'0 0.0
2018-Aug-07 17:58N 59°28' E 024°39'0 0.0
2018-Aug-07 17:28N 59°28' E 024°39'0 0.0
2018-Aug-07 16:57N 59°28' E 024°39'0 0.0
2018-Aug-07 16:28N 59°28' E 024°39'0 0.0
2018-Aug-07 16:00N 59°28' E 024°39'0 0.0
2018-Aug-07 15:27N 59°28' E 024°39'0 0.0
2018-Aug-07 14:57N 59°28' E 024°39'0 0.0
2018-Aug-07 14:30N 59°28' E 024°39'0 0.0
2018-Aug-07 14:00N 59°28' E 024°39'0 0.0
2018-Aug-07 13:27N 59°28' E 024°39'0 0.0
2018-Aug-07 13:00N 59°28' E 024°39'0 0.0
2018-Aug-07 12:24N 59°28' E 024°39'0 0.0
2018-Aug-07 11:57N 59°28' E 024°39'0 0.0
2018-Aug-07 11:30N 59°28' E 024°39'0 0.0
2018-Aug-07 11:00N 59°28' E 024°39'0 0.0
2018-Aug-07 10:30N 59°28' E 024°39'0 0.0
2018-Aug-07 09:57N 59°28' E 024°39'0 0.0
2018-Aug-07 09:30N 59°28' E 024°39'0 0.0
2018-Aug-07 09:00N 59°28' E 024°39'0 0.0
2018-Aug-07 08:30N 59°28' E 024°39'0 0.0
2018-Aug-07 07:54N 59°28' E 024°39'0 0.0
2018-Aug-07 07:27N 59°28' E 024°39'0 0.0
2018-Aug-07 06:59N 59°28' E 024°39'0 0.0
2018-Aug-07 06:27N 59°28' E 024°39'  

Dump ship's entire track history